createdAt,value
2022-08-28T00:00:42.500Z,2.13
2022-08-28T00:03:10.638Z,2.05
2022-08-28T00:05:39.636Z,2.17
2022-08-28T00:08:08.200Z,2.22
2022-08-28T00:10:35.834Z,2.22
2022-08-28T00:13:03.244Z,2.38
2022-08-28T00:15:32.258Z,2.40
2022-08-28T00:17:59.925Z,2.20
2022-08-28T00:20:27.588Z,2.30
2022-08-28T00:22:55.634Z,2.40
2022-08-28T00:25:24.318Z,2.88
2022-08-28T00:27:53.184Z,2.22
2022-08-28T00:30:21.443Z,2.55
2022-08-28T00:32:49.217Z,2.60
2022-08-28T00:35:17.696Z,2.60
2022-08-28T00:37:46.415Z,2.28
2022-08-28T00:40:16.043Z,2.45
2022-08-28T00:42:43.726Z,2.17
2022-08-28T00:45:11.064Z,2.42
2022-08-28T00:47:40.052Z,2.70
2022-08-28T00:50:08.944Z,2.53
2022-08-28T00:52:36.332Z,2.42
2022-08-28T00:55:13.570Z,2.20
2022-08-28T00:57:48.461Z,2.33
2022-08-28T01:00:31.941Z,2.28
2022-08-28T01:02:59.425Z,2.20
2022-08-28T01:05:27.223Z,2.47
2022-08-28T01:07:55.337Z,2.42
2022-08-28T01:10:23.291Z,2.20
2022-08-28T01:12:50.830Z,2.63
2022-08-28T01:15:20.961Z,2.63
2022-08-28T01:17:49.254Z,2.70
2022-08-28T01:20:18.654Z,2.80
2022-08-28T01:23:09.963Z,2.97
2022-08-28T01:25:37.495Z,3.03
2022-08-28T01:28:07.198Z,3.50
2022-08-28T01:30:34.614Z,3.08
2022-08-28T01:33:02.011Z,3.15
2022-08-28T01:35:33.639Z,2.70
2022-08-28T01:38:01.405Z,3.08
2022-08-28T01:40:37.055Z,2.50
2022-08-28T01:43:12.547Z,2.97
2022-08-28T01:45:44.714Z,2.53
2022-08-28T01:48:12.900Z,2.72
2022-08-28T01:50:40.557Z,3.00
2022-08-28T01:53:08.048Z,2.88
2022-08-28T01:55:40.105Z,2.80
2022-08-28T01:58:09.503Z,2.90
2022-08-28T02:00:37.109Z,3.00
2022-08-28T02:03:04.471Z,2.80
2022-08-28T02:05:32.639Z,3.03
2022-08-28T02:08:00.521Z,3.13
2022-08-28T02:10:28.503Z,2.92
2022-08-28T02:12:56.175Z,3.15
2022-08-28T02:15:27.163Z,3.58
2022-08-28T02:17:54.608Z,3.15
2022-08-28T02:20:22.444Z,3.00
2022-08-28T02:22:49.792Z,3.28
2022-08-28T02:25:17.247Z,2.53
2022-08-28T02:27:45.359Z,2.83
2022-08-28T02:30:13.320Z,2.83
2022-08-28T02:32:40.706Z,3.25
2022-08-28T02:35:10.985Z,3.22
2022-08-28T02:37:40.102Z,2.95
2022-08-28T02:40:08.340Z,3.20
2022-08-28T02:42:35.712Z,3.08
2022-08-28T02:45:03.440Z,3.33
2022-08-28T02:47:31.862Z,3.30
2022-08-28T02:49:59.245Z,2.90
2022-08-28T02:52:27.001Z,2.97
2022-08-28T02:54:54.317Z,3.13
2022-08-28T02:57:21.646Z,3.10
2022-08-28T02:59:49.009Z,3.30
2022-08-28T03:02:16.915Z,3.67
2022-08-28T03:04:44.634Z,3.15
2022-08-28T03:07:13.697Z,3.60
2022-08-28T03:09:43.573Z,3.05
2022-08-28T03:12:13.169Z,3.53
2022-08-28T03:14:40.575Z,4.03
2022-08-28T03:17:07.920Z,3.80
2022-08-28T03:19:35.385Z,4.10
2022-08-28T03:22:02.753Z,3.90
2022-08-28T03:24:30.074Z,3.50
2022-08-28T03:26:57.424Z,3.90
2022-08-28T03:29:24.727Z,3.92
2022-08-28T03:31:52.782Z,3.90
2022-08-28T03:34:20.533Z,4.10
2022-08-28T03:36:47.871Z,3.88
2022-08-28T03:39:15.194Z,4.30
2022-08-28T03:41:42.544Z,3.75
2022-08-28T03:44:09.923Z,4.03
2022-08-28T03:46:37.343Z,3.85
2022-08-28T03:49:04.837Z,4.97
2022-08-28T03:51:32.943Z,4.93
2022-08-28T03:54:00.586Z,4.70
2022-08-28T03:56:28.727Z,4.72
2022-08-28T03:58:58.493Z,3.85
2022-08-28T04:01:26.052Z,4.57
2022-08-28T04:03:53.467Z,4.47
2022-08-28T04:06:20.829Z,5.00
2022-08-28T04:08:48.337Z,4.55
2022-08-28T04:11:15.875Z,4.97
2022-08-28T04:13:43.314Z,4.50
2022-08-28T04:16:13.054Z,4.97
2022-08-28T04:18:41.982Z,4.38
2022-08-28T04:21:11.922Z,4.68
2022-08-28T04:23:39.963Z,5.03
2022-08-28T04:26:07.778Z,4.53
2022-08-28T04:28:35.339Z,4.63
2022-08-28T04:31:02.890Z,4.60
2022-08-28T04:33:30.359Z,5.47
2022-08-28T04:35:57.742Z,4.65
2022-08-28T04:38:25.063Z,4.65
2022-08-28T04:40:52.523Z,5.10
2022-08-28T04:43:19.835Z,5.15
2022-08-28T04:45:47.282Z,4.40
2022-08-28T04:48:14.768Z,5.18
2022-08-28T04:50:47.245Z,5.22
2022-08-28T04:53:15.223Z,5.30
2022-08-28T04:55:54.465Z,5.10
2022-08-28T04:58:23.754Z,4.72
2022-08-28T05:00:52.187Z,4.95
2022-08-28T05:03:19.639Z,4.50
2022-08-28T05:05:49.102Z,4.72
2022-08-28T05:08:18.029Z,4.53
2022-08-28T05:10:47.011Z,4.60
2022-08-28T05:13:18.280Z,4.40
2022-08-28T05:15:47.519Z,4.22
2022-08-28T05:18:15.577Z,4.38
2022-08-28T05:20:44.655Z,4.80
2022-08-28T05:23:12.353Z,4.75
2022-08-28T05:25:42.766Z,4.95
2022-08-28T05:28:12.034Z,4.53
2022-08-28T05:30:40.257Z,4.90
2022-08-28T05:33:08.230Z,4.82
2022-08-28T05:35:40.249Z,4.30
2022-08-28T05:38:07.763Z,5.30
2022-08-28T05:40:40.039Z,4.75
2022-08-28T05:43:07.412Z,5.30
2022-08-28T05:45:34.756Z,4.90
2022-08-28T05:48:02.260Z,5.10
2022-08-28T05:50:31.314Z,4.82
2022-08-28T05:52:59.255Z,4.50
2022-08-28T05:55:26.636Z,4.40
2022-08-28T05:57:53.976Z,4.95
2022-08-28T06:00:21.578Z,5.13
2022-08-28T06:02:48.906Z,4.70
2022-08-28T06:05:17.930Z,4.88
2022-08-28T06:07:45.338Z,4.80
2022-08-28T06:10:12.693Z,4.57
2022-08-28T06:12:40.331Z,5.28
2022-08-28T06:15:08.245Z,5.50
2022-08-28T06:17:35.556Z,5.75
2022-08-28T06:20:04.371Z,5.70
2022-08-28T06:22:31.678Z,7.50
2022-08-28T06:24:59.077Z,7.00
2022-08-28T06:27:26.439Z,7.68
2022-08-28T06:29:53.781Z,8.43
2022-08-28T06:32:21.146Z,9.88
2022-08-28T06:34:48.579Z,9.05
2022-08-28T06:37:15.924Z,10.32
2022-08-28T06:39:43.241Z,10.10
2022-08-28T06:42:10.593Z,9.85
2022-08-28T06:44:39.228Z,10.32
2022-08-28T06:47:06.647Z,11.63
2022-08-28T06:49:34.226Z,13.80
2022-08-28T06:52:02.303Z,13.07
2022-08-28T06:54:31.024Z,12.50
2022-08-28T06:56:58.423Z,13.20
2022-08-28T06:59:26.807Z,13.50
2022-08-28T07:01:54.429Z,14.35
2022-08-28T07:04:21.944Z,13.40
2022-08-28T07:06:54.114Z,16.75
2022-08-28T07:09:22.543Z,16.58
2022-08-28T07:11:50.040Z,16.45
2022-08-28T07:14:17.380Z,17.75
2022-08-28T07:16:44.950Z,16.00
2022-08-28T07:19:12.520Z,17.35
2022-08-28T07:21:42.154Z,18.42
2022-08-28T07:24:10.628Z,17.05
2022-08-28T07:26:40.826Z,16.55
2022-08-28T07:29:10.016Z,17.95
2022-08-28T07:31:46.887Z,16.13
2022-08-28T07:34:15.937Z,17.05
2022-08-28T07:36:43.415Z,19.08
2022-08-28T07:39:11.561Z,16.98
2022-08-28T07:41:40.303Z,18.02
2022-08-28T07:44:26.466Z,18.38
2022-08-28T07:46:58.005Z,18.77
2022-08-28T07:49:25.599Z,20.42
2022-08-28T07:51:53.877Z,19.45
2022-08-28T07:54:22.716Z,17.98
2022-08-28T07:56:50.281Z,17.55
2022-08-28T07:59:19.217Z,17.67
2022-08-28T08:01:48.244Z,17.35
2022-08-28T08:04:16.286Z,15.43
2022-08-28T08:06:43.879Z,15.65
2022-08-28T08:09:13.220Z,14.90
2022-08-28T08:11:40.617Z,14.10
2022-08-28T08:14:08.436Z,14.57
2022-08-28T08:16:38.713Z,15.45
2022-08-28T08:19:06.474Z,16.88
2022-08-28T08:21:33.827Z,14.48
2022-08-28T08:24:01.206Z,14.73
2022-08-28T08:26:28.612Z,14.23
2022-08-28T08:28:56.186Z,13.57
2022-08-28T08:31:26.646Z,14.07
2022-08-28T08:33:56.140Z,13.43
2022-08-28T08:36:25.015Z,14.40
2022-08-28T08:38:59.989Z,14.05
2022-08-28T08:41:51.181Z,14.18
2022-08-28T08:44:23.705Z,13.77
2022-08-28T08:47:16.254Z,15.25
2022-08-28T08:50:07.143Z,14.68
2022-08-28T08:52:40.364Z,15.40
2022-08-28T08:55:23.885Z,15.32
2022-08-28T08:58:04.544Z,15.77
2022-08-28T09:00:33.415Z,14.80
2022-08-28T09:03:15.349Z,16.38
2022-08-28T09:06:12.529Z,14.32
2022-08-28T09:08:44.433Z,14.95
2022-08-28T09:12:03.599Z,15.77
2022-08-28T09:14:38.493Z,16.33
2022-08-28T09:17:06.143Z,16.40
2022-08-28T09:19:33.684Z,17.40
2022-08-28T09:22:01.422Z,15.40
2022-08-28T09:24:33.519Z,16.48
2022-08-28T09:27:24.919Z,15.52
2022-08-28T09:30:02.530Z,17.65
2022-08-28T09:32:43.762Z,17.08
2022-08-28T09:35:25.238Z,17.15
2022-08-28T09:37:52.702Z,17.23
2022-08-28T09:40:22.459Z,18.02
2022-08-28T09:43:23.566Z,17.20
2022-08-28T09:46:09.936Z,16.58
2022-08-28T09:48:43.346Z,18.85
2022-08-28T09:51:22.927Z,18.75
2022-08-28T09:53:56.446Z,19.20
2022-08-28T09:56:33.494Z,19.60
2022-08-28T09:59:14.213Z,19.90
2022-08-28T10:01:45.110Z,20.35
2022-08-28T10:04:34.572Z,19.35
2022-08-28T10:07:15.250Z,19.77
2022-08-28T10:09:51.790Z,20.65
2022-08-28T10:12:50.367Z,21.33
2022-08-28T10:16:13.863Z,20.92
2022-08-28T10:18:53.088Z,21.40
2022-08-28T10:21:29.312Z,20.63
2022-08-28T10:24:09.475Z,20.13
2022-08-28T10:26:42.902Z,20.88
2022-08-28T10:29:31.331Z,20.50
2022-08-28T10:32:21.907Z,21.38
2022-08-28T10:35:08.140Z,22.45
2022-08-28T10:37:57.166Z,20.65
2022-08-28T10:40:52.090Z,24.08
2022-08-28T10:43:45.783Z,20.55
2022-08-28T10:46:27.881Z,24.05
2022-08-28T10:49:00.446Z,22.75
2022-08-28T10:51:44.600Z,22.02
2022-08-28T10:54:23.483Z,24.10
2022-08-28T10:57:00.095Z,24.13
2022-08-28T10:59:27.744Z,24.10
2022-08-28T11:01:55.136Z,22.73
2022-08-28T11:04:25.649Z,23.77
2022-08-28T11:06:58.518Z,23.50
2022-08-28T11:09:35.336Z,24.15
2022-08-28T11:12:10.089Z,24.13
2022-08-28T11:14:47.586Z,25.52
2022-08-28T11:17:22.053Z,21.92
2022-08-28T11:20:10.614Z,21.00
2022-08-28T11:22:39.485Z,25.20
2022-08-28T11:25:26.666Z,23.73
2022-08-28T11:28:25.540Z,26.05
2022-08-28T11:30:59.193Z,26.83
2022-08-28T11:33:47.695Z,26.25
2022-08-28T11:36:25.395Z,25.35
2022-08-28T11:38:53.226Z,25.88
2022-08-28T11:41:24.429Z,24.83
2022-08-28T11:44:13.918Z,23.80
2022-08-28T11:46:49.148Z,23.27
2022-08-28T11:49:34.768Z,25.33
2022-08-28T11:52:31.439Z,25.70
2022-08-28T11:55:02.023Z,24.48
2022-08-28T11:57:50.632Z,22.30
2022-08-28T12:00:39.967Z,24.92
2022-08-28T12:03:07.338Z,22.90
2022-08-28T12:05:36.101Z,24.30
2022-08-28T12:08:03.969Z,22.60
2022-08-28T12:10:32.406Z,23.30
2022-08-28T12:13:04.017Z,21.02
2022-08-28T12:15:31.376Z,24.88
2022-08-28T12:18:00.014Z,24.70
2022-08-28T12:20:51.018Z,24.35
2022-08-28T12:23:37.836Z,21.55
2022-08-28T12:26:26.530Z,22.15
2022-08-28T12:28:56.955Z,22.08
2022-08-28T12:31:55.039Z,20.25
2022-08-28T12:34:28.846Z,22.02
2022-08-28T12:37:00.211Z,21.90
2022-08-28T12:39:27.747Z,20.92
2022-08-28T12:41:55.131Z,19.50
2022-08-28T12:44:24.253Z,21.13
2022-08-28T12:46:51.675Z,21.65
2022-08-28T12:49:37.783Z,20.67
2022-08-28T12:52:18.260Z,19.23
2022-08-28T12:54:46.213Z,19.92
2022-08-28T12:57:18.013Z,19.00
2022-08-28T12:59:52.942Z,16.67
2022-08-28T13:02:28.375Z,16.20
2022-08-28T13:05:00.061Z,17.10
2022-08-28T13:07:40.555Z,17.80
2022-08-28T13:10:29.675Z,18.10
2022-08-28T13:13:27.878Z,18.88
2022-08-28T13:15:58.491Z,17.10
2022-08-28T13:18:49.743Z,18.02
2022-08-28T13:21:30.843Z,18.38
2022-08-28T13:24:26.108Z,18.02
2022-08-28T13:27:06.858Z,17.48
2022-08-28T13:29:34.381Z,17.33
2022-08-28T13:32:08.524Z,16.40
2022-08-28T13:34:37.333Z,18.45
2022-08-28T13:37:08.816Z,18.52
2022-08-28T13:39:47.723Z,19.95
2022-08-28T13:42:15.925Z,19.35
2022-08-28T13:44:49.102Z,19.77
2022-08-28T13:47:16.760Z,19.80
2022-08-28T13:49:44.148Z,18.65
2022-08-28T13:52:11.942Z,19.13
2022-08-28T13:54:43.817Z,19.58
2022-08-28T13:57:16.119Z,18.27
2022-08-28T13:59:43.637Z,19.42
2022-08-28T14:02:31.117Z,18.33
2022-08-28T14:04:58.628Z,18.70
2022-08-28T14:07:25.969Z,19.98
2022-08-28T14:09:56.411Z,18.20
2022-08-28T14:12:31.410Z,16.58
2022-08-28T14:15:01.788Z,16.75
2022-08-28T14:17:29.268Z,17.80
2022-08-28T14:19:56.798Z,18.30
2022-08-28T14:22:24.177Z,17.58
2022-08-28T14:24:52.196Z,19.15
2022-08-28T14:27:19.611Z,16.77
2022-08-28T14:29:47.042Z,16.98
2022-08-28T14:32:14.477Z,17.65
2022-08-28T14:34:41.991Z,17.40
2022-08-28T14:37:09.363Z,16.10
2022-08-28T14:39:36.746Z,18.30
2022-08-28T14:42:06.457Z,17.52
2022-08-28T14:47:07.713Z,18.67
2022-08-28T14:49:35.127Z,18.05
2022-08-28T14:52:02.597Z,16.70
2022-08-28T14:54:29.957Z,17.02
2022-08-28T14:56:57.451Z,16.92
2022-08-28T14:59:26.695Z,14.85
2022-08-28T15:01:55.576Z,16.50
2022-08-28T15:04:23.640Z,16.83
2022-08-28T15:06:54.908Z,20.02
2022-08-28T15:09:22.260Z,19.38
2022-08-28T15:11:49.643Z,19.73
2022-08-28T15:14:17.074Z,21.40
2022-08-28T15:16:45.671Z,20.90
2022-08-28T15:19:15.893Z,19.40
2022-08-28T15:21:45.664Z,17.38
2022-08-28T15:24:13.870Z,13.73
2022-08-28T15:26:41.275Z,14.27
2022-08-28T15:29:08.982Z,15.35
2022-08-28T15:31:38.674Z,16.17
2022-08-28T15:34:09.873Z,16.88
2022-08-28T15:36:42.031Z,16.98
2022-08-28T15:39:28.557Z,17.85
2022-08-28T15:41:56.383Z,16.88
2022-08-28T15:44:24.151Z,16.15
2022-08-28T15:46:56.412Z,17.40
2022-08-28T15:49:24.439Z,18.63
2022-08-28T15:51:52.589Z,17.75
2022-08-28T15:54:22.116Z,16.65
2022-08-28T15:56:52.729Z,17.33
2022-08-28T15:59:21.555Z,17.70
2022-08-28T16:01:51.269Z,17.55
2022-08-28T16:04:18.814Z,17.38
2022-08-28T16:06:46.489Z,17.00
2022-08-28T16:09:13.995Z,17.60
2022-08-28T16:11:43.817Z,16.90
2022-08-28T16:14:11.999Z,17.27
2022-08-28T16:16:39.615Z,17.77
2022-08-28T16:19:14.127Z,18.33
2022-08-28T16:21:42.284Z,17.00
2022-08-28T16:24:09.979Z,17.27
2022-08-28T16:26:37.978Z,18.98
2022-08-28T16:29:06.000Z,17.95
2022-08-28T16:31:34.560Z,16.90
2022-08-28T16:34:03.023Z,18.02
2022-08-28T16:36:30.877Z,17.17
2022-08-28T16:39:03.661Z,16.27
2022-08-28T16:41:31.939Z,16.60
2022-08-28T16:43:59.453Z,16.42
2022-08-28T16:46:27.912Z,17.30
2022-08-28T16:48:55.462Z,14.82
2022-08-28T16:51:26.782Z,14.98
2022-08-28T16:53:54.848Z,16.15
2022-08-28T16:56:23.765Z,15.23
2022-08-28T16:58:53.268Z,14.82
2022-08-28T17:01:23.972Z,13.85
2022-08-28T17:03:52.942Z,13.70
2022-08-28T17:06:26.491Z,13.75
2022-08-28T17:08:56.954Z,13.57
2022-08-28T17:11:26.029Z,13.60
2022-08-28T17:13:53.843Z,13.18
2022-08-28T17:16:21.591Z,13.70
2022-08-28T17:18:52.564Z,13.88
2022-08-28T17:21:40.157Z,13.55
2022-08-28T17:24:08.729Z,13.05
2022-08-28T17:26:36.087Z,12.95
2022-08-28T17:29:03.995Z,12.43
2022-08-28T17:31:31.521Z,11.73
2022-08-28T17:33:58.966Z,12.07
2022-08-28T17:36:33.421Z,12.38
2022-08-28T17:39:03.065Z,12.65
2022-08-28T17:41:30.475Z,11.85
2022-08-28T17:43:58.264Z,11.57
2022-08-28T17:46:26.576Z,12.48
2022-08-28T17:48:55.856Z,11.93
2022-08-28T17:51:40.438Z,12.27
2022-08-28T17:54:18.239Z,12.88
2022-08-28T17:56:46.306Z,12.90
2022-08-28T17:59:13.987Z,13.18
2022-08-28T18:01:42.312Z,13.05
2022-08-28T18:04:10.384Z,13.27
2022-08-28T18:06:37.907Z,13.40
2022-08-28T18:09:05.945Z,13.75
2022-08-28T18:11:33.448Z,13.82
2022-08-28T18:14:01.089Z,15.63
2022-08-28T18:16:31.329Z,15.32
2022-08-28T18:19:00.113Z,16.15
2022-08-28T18:21:27.655Z,16.25
2022-08-28T18:23:55.057Z,17.33
2022-08-28T18:26:22.391Z,15.93
2022-08-28T18:28:49.911Z,16.33
2022-08-28T18:31:17.696Z,16.27
2022-08-28T18:33:45.128Z,15.20
2022-08-28T18:36:13.514Z,16.13
2022-08-28T18:38:41.265Z,15.75
2022-08-28T18:41:08.861Z,15.80
2022-08-28T18:43:36.602Z,16.20
2022-08-28T18:46:04.510Z,15.95
2022-08-28T18:48:32.030Z,16.23
2022-08-28T18:50:59.581Z,16.38
2022-08-28T18:53:27.958Z,15.35
2022-08-28T18:55:56.382Z,14.63
2022-08-28T18:58:27.880Z,16.10
2022-08-28T19:00:55.469Z,15.00
2022-08-28T19:03:22.837Z,15.40
2022-08-28T19:05:51.079Z,16.05
2022-08-28T19:08:18.628Z,15.82
2022-08-28T19:10:46.639Z,15.23
2022-08-28T19:13:14.051Z,15.32
2022-08-28T19:15:41.604Z,15.50
2022-08-28T19:18:09.051Z,16.90
2022-08-28T19:20:36.458Z,14.80
2022-08-28T19:23:03.817Z,16.27
2022-08-28T19:25:31.261Z,15.10
2022-08-28T19:27:59.706Z,14.82
2022-08-28T19:30:28.689Z,14.80
2022-08-28T19:32:56.115Z,15.65
2022-08-28T19:35:24.525Z,15.80
2022-08-28T19:37:52.839Z,15.95
2022-08-28T19:40:20.743Z,16.17
2022-08-28T19:42:49.846Z,16.17
2022-08-28T19:45:17.872Z,16.25
2022-08-28T19:47:45.559Z,16.60
2022-08-28T19:50:13.930Z,15.88
2022-08-28T19:52:41.453Z,16.30
2022-08-28T19:55:08.990Z,15.90
2022-08-28T19:57:36.636Z,15.25
2022-08-28T20:00:04.824Z,15.35
2022-08-28T20:02:32.195Z,15.80
2022-08-28T20:04:59.619Z,14.68
2022-08-28T20:07:26.983Z,15.43
2022-08-28T20:09:54.318Z,17.23
2022-08-28T20:12:21.704Z,15.07
2022-08-28T20:14:49.340Z,17.38
2022-08-28T20:17:18.634Z,14.63
2022-08-28T20:19:47.631Z,15.35
2022-08-28T20:22:15.279Z,15.75
2022-08-28T20:24:42.818Z,15.82
2022-08-28T20:27:10.194Z,15.50
2022-08-28T20:29:37.554Z,14.63
2022-08-28T20:32:05.017Z,15.25
2022-08-28T20:34:32.397Z,14.65
2022-08-28T20:36:59.747Z,15.32
2022-08-28T20:39:28.189Z,15.15
2022-08-28T20:41:55.523Z,15.57
2022-08-28T20:44:22.905Z,14.77
2022-08-28T20:46:51.537Z,15.43
2022-08-28T20:49:24.386Z,15.70
2022-08-28T20:51:58.835Z,16.60
2022-08-28T20:57:03.478Z,14.17
2022-08-28T20:59:35.434Z,15.48
2022-08-28T21:02:11.137Z,15.55
2022-08-28T21:04:39.017Z,14.65
2022-08-28T21:07:06.511Z,15.75
2022-08-28T21:10:01.424Z,15.45
2022-08-28T21:12:21.524Z,15.75
2022-08-28T21:14:52.315Z,15.38
2022-08-28T21:17:28.846Z,16.02
2022-08-28T21:19:57.097Z,15.75
2022-08-28T21:22:24.441Z,16.55
2022-08-28T21:24:51.803Z,15.57
2022-08-28T21:27:19.153Z,16.08
2022-08-28T21:29:46.505Z,15.93
2022-08-28T21:32:13.840Z,15.30
2022-08-28T21:34:41.218Z,16.00
2022-08-28T21:37:08.572Z,15.77
2022-08-28T21:39:35.931Z,17.20
2022-08-28T21:42:03.388Z,15.50
2022-08-28T21:44:30.735Z,16.33
2022-08-28T21:46:59.523Z,15.35
2022-08-28T21:49:26.883Z,15.00
2022-08-28T21:51:54.769Z,15.23
2022-08-28T21:54:23.053Z,16.20
2022-08-28T21:56:50.608Z,16.83
2022-08-28T21:59:30.270Z,17.63
2022-08-28T22:02:05.348Z,16.42
2022-08-28T22:04:32.854Z,16.65
2022-08-28T22:07:00.192Z,15.93
2022-08-28T22:09:27.665Z,15.63
2022-08-28T22:11:54.985Z,16.13
2022-08-28T22:14:25.151Z,16.30
2022-08-28T22:16:52.601Z,16.35
2022-08-28T22:19:19.973Z,16.23
2022-08-28T22:22:05.724Z,17.48
2022-08-28T22:24:33.338Z,16.48
2022-08-28T22:27:00.672Z,15.90
2022-08-28T22:29:30.012Z,17.40
2022-08-28T22:31:57.390Z,16.98
2022-08-28T22:34:24.775Z,16.80
2022-08-28T22:36:52.102Z,15.77
2022-08-28T22:39:19.441Z,16.83
2022-08-28T22:41:46.779Z,16.83
2022-08-28T22:44:14.136Z,15.90
2022-08-28T22:46:42.050Z,16.50
2022-08-28T22:49:09.382Z,16.80
2022-08-28T22:51:36.698Z,17.90
2022-08-28T22:54:04.369Z,17.08
2022-08-28T22:56:31.691Z,16.58
2022-08-28T22:58:59.381Z,16.98
2022-08-28T23:01:26.913Z,15.98
2022-08-28T23:03:54.378Z,15.88
2022-08-28T23:06:21.765Z,16.88
2022-08-28T23:08:49.278Z,16.33
2022-08-28T23:11:16.983Z,15.35
2022-08-28T23:13:44.356Z,15.85
2022-08-28T23:16:11.777Z,16.17
2022-08-28T23:19:04.300Z,16.20
2022-08-28T23:21:28.409Z,15.57
2022-08-28T23:23:56.167Z,15.63
2022-08-28T23:26:24.076Z,15.57
2022-08-28T23:28:51.742Z,15.23
2022-08-28T23:31:19.281Z,14.23
2022-08-28T23:33:46.837Z,16.25
2022-08-28T23:36:15.252Z,14.93
2022-08-28T23:38:44.792Z,15.18
2022-08-28T23:41:12.504Z,15.23
2022-08-28T23:43:40.862Z,15.82
2022-08-28T23:46:09.597Z,15.75
2022-08-28T23:48:41.071Z,15.60
2022-08-28T23:51:09.807Z,14.70
2022-08-28T23:53:39.407Z,14.45
2022-08-28T23:56:07.074Z,14.95
2022-08-28T23:58:35.406Z,14.32
